Time;durP1;ratioP1;P1;durP2;ratioP2;P2;SDS_P1;SDS_P2;PMS_P1;PMS_P2;Temp;Humidity;BMP_temperature;BMP_pressure;BME280_temperature;BME280_humidity;BME280_pressure;Samples;Min_cycle;Max_cycle;Signal;HPM_P1;HPM_P2
2022/04/14 00:01:17;;;;;;;2.85;1.17;;;20.60;58.70;;;;;;5033224;28;20048;-57
2022/04/14 00:03:43;;;;;;;2.92;1.17;;;20.60;58.70;;;;;;5032253;28;20081;-58
2022/04/14 00:06:08;;;;;;;2.58;1.42;;;20.60;58.70;;;;;;5033459;28;20041;-58
2022/04/14 00:08:34;;;;;;;3.67;1.52;;;20.50;58.60;;;;;;5033161;28;20374;-58
2022/04/14 00:10:59;;;;;;;2.47;1.30;;;20.50;58.60;;;;;;5031997;28;20045;-58
2022/04/14 00:13:25;;;;;;;2.53;1.35;;;20.50;58.60;;;;;;5033250;28;20077;-58
2022/04/14 00:15:50;;;;;;;3.28;1.05;;;20.50;58.50;;;;;;5032662;28;20045;-58
2022/04/14 00:18:16;;;;;;;3.42;1.27;;;20.50;58.50;;;;;;5032236;28;20053;-58
2022/04/14 00:20:42;;;;;;;4.72;1.50;;;20.50;58.60;;;;;;5032688;28;20049;-57
2022/04/14 00:23:07;;;;;;;3.42;1.63;;;20.50;58.50;;;;;;5033227;28;20048;-58
2022/04/14 00:25:33;;;;;;;2.28;1.10;;;20.50;58.50;;;;;;5031830;28;20049;-58
2022/04/14 00:27:58;;;;;;;4.13;1.38;;;20.50;58.50;;;;;;5032815;28;20084;-57
2022/04/14 00:30:24;;;;;;;2.55;1.02;;;20.50;58.50;;;;;;5032912;28;20064;-58
2022/04/14 00:32:50;;;;;;;3.40;1.20;;;20.50;58.50;;;;;;5031891;28;20044;-57
2022/04/14 00:35:15;;;;;;;3.40;1.52;;;20.50;58.50;;;;;;5032833;28;20045;-57
2022/04/14 00:37:41;;;;;;;2.35;1.20;;;20.50;58.50;;;;;;5032598;28;20143;-58
2022/04/14 00:40:07;;;;;;;2.78;1.50;;;20.50;58.40;;;;;;5031945;28;20408;-58
2022/04/14 00:42:32;;;;;;;3.80;1.50;;;20.50;58.40;;;;;;5032814;28;20060;-58
2022/04/14 00:44:58;;;;;;;3.47;1.30;;;20.50;58.40;;;;;;5032653;28;20045;-57
2022/04/14 00:47:23;;;;;;;2.42;1.10;;;20.40;58.30;;;;;;5031844;28;20103;-58
2022/04/14 00:49:49;;;;;;;2.47;1.20;;;20.40;58.20;;;;;;5032563;28;20037;-58
2022/04/14 00:52:15;;;;;;;3.20;1.13;;;20.40;58.20;;;;;;5032381;28;20046;-58
2022/04/14 00:54:40;;;;;;;3.45;1.52;;;20.50;58.30;;;;;;5031661;28;20053;-58
2022/04/14 00:57:07;;;;;;;2.38;0.98;;;20.40;58.20;;;;;;5032621;28;20049;-58
2022/04/14 00:59:32;;;;;;;1.77;0.98;;;20.40;58.20;;;;;;5030720;28;20072;-58
2022/04/14 01:01:58;;;;;;;4.32;1.10;;;20.40;58.20;;;;;;5032082;28;20659;-58
2022/04/14 01:04:27;;;;;;;4.15;1.85;;;20.40;58.20;;;;;;5031269;28;20052;-58
2022/04/14 01:06:53;;;;;;;2.03;1.17;;;20.40;58.20;;;;;;5031526;28;20046;-58
2022/04/14 01:09:19;;;;;;;2.22;1.10;;;20.40;58.10;;;;;;5032535;28;20052;-58
2022/04/14 01:11:49;;;;;;;3.03;1.38;;;20.40;58.20;;;;;;5032206;28;20042;-58
2022/04/14 01:14:19;;;;;;;2.25;1.13;;;20.40;58.10;;;;;;5031926;28;20045;-58
2022/04/14 01:16:44;;;;;;;2.47;1.27;;;20.40;58.10;;;;;;5031860;28;20045;-58
2022/04/14 01:19:10;;;;;;;2.58;1.38;;;20.40;58.10;;;;;;5032152;28;20523;-58
2022/04/14 01:21:35;;;;;;;2.63;1.30;;;20.40;58.20;;;;;;5031717;28;20044;-58
2022/04/14 01:24:02;;;;;;;2.10;1.02;;;20.40;58.10;;;;;;5030707;28;20081;-58
2022/04/14 01:26:27;;;;;;;3.25;1.02;;;20.40;58.10;;;;;;5032350;28;20125;-58
2022/04/14 01:28:53;;;;;;;2.60;1.27;;;20.30;58.10;;;;;;5029737;28;20053;-58
2022/04/14 01:31:18;;;;;;;2.65;1.10;;;20.30;58.00;;;;;;5031870;28;20052;-58
2022/04/14 01:33:44;;;;;;;1.70;1.00;;;20.40;58.10;;;;;;5032076;28;20389;-58
2022/04/14 01:36:09;;;;;;;2.63;1.10;;;20.30;58.00;;;;;;5030911;28;20091;-58
2022/04/14 01:38:35;;;;;;;2.67;1.10;;;20.30;58.00;;;;;;5031980;28;20141;-58
2022/04/14 01:41:00;;;;;;;3.17;1.30;;;20.30;58.00;;;;;;5031995;28;20124;-58
2022/04/14 01:43:26;;;;;;;2.47;1.38;;;20.30;58.00;;;;;;5031677;28;20072;-58
2022/04/14 01:45:51;;;;;;;3.10;1.40;;;20.30;58.00;;;;;;5035567;28;20037;-58
2022/04/14 01:48:17;;;;;;;3.22;1.15;;;20.30;58.00;;;;;;5035940;28;20382;-58
2022/04/14 01:50:43;;;;;;;2.42;1.23;;;20.30;58.00;;;;;;5034832;28;20088;-58
2022/04/14 01:53:09;;;;;;;2.25;1.08;;;20.30;58.00;;;;;;5035856;28;20049;-58
2022/04/14 01:55:34;;;;;;;1.83;1.00;;;20.30;57.90;;;;;;5035609;28;20068;-58
2022/04/14 01:58:00;;;;;;;3.38;1.27;;;20.30;57.90;;;;;;5034958;28;20456;-58
2022/04/14 02:00:25;;;;;;;2.55;1.27;;;20.30;57.90;;;;;;5035357;28;20048;-58
2022/04/14 02:02:51;;;;;;;2.00;1.10;;;20.30;57.90;;;;;;5033988;28;20052;-58
2022/04/14 02:05:16;;;;;;;1.27;0.90;;;20.30;57.90;;;;;;5035042;28;20084;-58
2022/04/14 02:07:42;;;;;;;4.75;1.67;;;20.30;58.00;;;;;;5033805;28;20045;-58
2022/04/14 02:10:08;;;;;;;3.28;1.38;;;20.30;57.90;;;;;;5034560;28;20073;-58
2022/04/14 02:12:34;;;;;;;2.33;1.05;;;20.30;57.90;;;;;;5035451;28;20042;-57
2022/04/14 02:15:00;;;;;;;2.92;1.27;;;20.30;57.90;;;;;;5035044;28;20052;-58
2022/04/14 02:17:25;;;;;;;2.38;1.30;;;20.30;57.90;;;;;;5034549;28;20041;-58
2022/04/14 02:19:51;;;;;;;2.38;1.20;;;20.20;57.80;;;;;;5034905;28;20132;-58
2022/04/14 02:22:18;;;;;;;3.78;1.50;;;20.30;57.80;;;;;;5035199;28;20190;-58
2022/04/14 02:24:44;;;;;;;3.40;1.40;;;20.30;57.80;;;;;;5034098;28;20499;-57
2022/04/14 02:27:09;;;;;;;2.47;1.23;;;20.30;57.80;;;;;;5035204;28;20545;-58
2022/04/14 02:29:35;;;;;;;1.98;1.13;;;20.20;57.70;;;;;;5035055;28;20034;-58
2022/04/14 02:32:00;;;;;;;2.38;1.20;;;20.30;57.90;;;;;;5033797;28;20052;-58
2022/04/14 02:34:26;;;;;;;2.90;1.20;;;20.30;57.80;;;;;;5035144;28;20096;-58
2022/04/14 02:36:52;;;;;;;2.28;1.20;;;20.30;57.90;;;;;;5034450;28;20041;-58
2022/04/14 02:39:18;;;;;;;2.08;1.10;;;20.30;57.90;;;;;;5034246;28;20508;-58
2022/04/14 02:41:43;;;;;;;2.65;1.15;;;20.30;57.80;;;;;;5034704;28;20132;-58
2022/04/14 02:44:09;;;;;;;2.20;1.08;;;20.30;57.80;;;;;;5034991;28;20081;-57
2022/04/14 02:46:34;;;;;;;1.77;1.10;;;20.30;57.90;;;;;;5034114;28;20489;-58
2022/04/14 02:48:59;;;;;;;3.15;1.10;;;20.30;57.80;;;;;;5034674;28;20053;-58
2022/04/14 02:51:25;;;;;;;2.28;1.20;;;20.30;57.80;;;;;;5034763;28;20045;-58
2022/04/14 02:53:50;;;;;;;1.48;1.15;;;20.30;57.80;;;;;;5033669;28;20453;-58
2022/04/14 02:56:16;;;;;;;2.67;1.20;;;20.30;57.80;;;;;;5033430;28;20049;-58
2022/04/14 02:58:41;;;;;;;2.47;1.45;;;20.40;57.80;;;;;;5034402;28;20038;-58
2022/04/14 03:01:07;;;;;;;2.35;1.10;;;20.40;57.80;;;;;;5033694;28;20052;-58
2022/04/14 03:03:32;;;;;;;3.55;1.20;;;20.30;57.70;;;;;;5034296;28;20045;-58
2022/04/14 03:05:58;;;;;;;2.75;1.20;;;20.40;57.80;;;;;;5033192;28;20508;-60
2022/04/14 03:08:23;;;;;;;2.97;1.10;;;20.40;57.80;;;;;;5034247;28;20087;-58
2022/04/14 03:10:49;;;;;;;2.78;1.40;;;20.40;57.80;;;;;;5034058;28;20076;-58
2022/04/14 03:13:16;;;;;;;1.77;1.10;;;20.40;57.70;;;;;;5033594;28;20065;-58
2022/04/14 03:15:42;;;;;;;2.13;1.15;;;20.40;57.70;;;;;;5034043;28;20069;-58
2022/04/14 03:18:07;;;;;;;2.20;1.17;;;20.40;57.60;;;;;;5034158;28;20560;-58
2022/04/14 03:20:33;;;;;;;3.00;1.25;;;20.40;57.70;;;;;;5032622;28;20037;-58
2022/04/14 03:23:00;;;;;;;4.07;1.23;;;20.40;57.70;;;;;;5033720;28;20053;-58
2022/04/14 03:25:26;;;;;;;2.75;1.20;;;20.40;57.60;;;;;;5033797;28;20511;-58
2022/04/14 03:27:51;;;;;;;1.98;1.30;;;20.50;57.60;;;;;;5032950;28;20042;-58
2022/04/14 03:30:17;;;;;;;2.65;1.13;;;20.50;57.60;;;;;;5033775;28;20053;-58
2022/04/14 03:32:43;;;;;;;2.50;1.30;;;20.50;57.60;;;;;;5033622;28;20095;-58
2022/04/14 03:35:09;;;;;;;2.47;1.15;;;20.50;57.60;;;;;;5033156;28;20042;-58
2022/04/14 03:37:35;;;;;;;3.67;1.50;;;20.50;57.50;;;;;;5033521;28;20753;-58
2022/04/14 03:40:00;;;;;;;2.50;1.10;;;20.50;57.50;;;;;;5033280;28;20049;-58
2022/04/14 03:42:26;;;;;;;3.63;1.30;;;20.50;57.50;;;;;;5033116;28;20549;-58
2022/04/14 03:44:52;;;;;;;1.73;1.27;;;20.50;57.50;;;;;;5033475;28;20090;-58
2022/04/14 03:47:17;;;;;;;2.38;1.05;;;20.50;57.50;;;;;;5032203;28;20041;-58
2022/04/14 03:49:43;;;;;;;3.83;1.40;;;20.50;57.50;;;;;;5031863;28;20091;-58
2022/04/14 03:52:08;;;;;;;2.10;1.10;;;20.50;57.50;;;;;;5033456;28;20465;-58
2022/04/14 03:54:34;;;;;;;3.13;1.30;;;20.50;57.50;;;;;;5033676;28;20076;-58
2022/04/14 03:57:00;;;;;;;1.95;1.10;;;20.50;57.40;;;;;;5032435;28;20045;-58
2022/04/14 03:59:25;;;;;;;2.33;1.40;;;20.50;57.40;;;;;;5033547;28;20044;-58
2022/04/14 04:01:51;;;;;;;2.20;1.30;;;20.50;57.40;;;;;;5032668;28;20038;-58
2022/04/14 04:04:16;;;;;;;2.33;1.33;;;20.60;57.50;;;;;;5032001;28;20463;-58
2022/04/14 04:06:42;;;;;;;2.67;1.13;;;20.50;57.40;;;;;;5031972;28;20050;-58
2022/04/14 04:09:07;;;;;;;1.98;1.08;;;20.50;57.40;;;;;;5033376;28;20513;-58
2022/04/14 04:11:33;;;;;;;2.72;1.38;;;20.50;57.40;;;;;;5032211;28;20065;-58
2022/04/14 04:13:58;;;;;;;2.80;1.40;;;20.50;57.40;;;;;;5033030;28;20045;-58
2022/04/14 04:16:24;;;;;;;1.80;1.38;;;20.60;57.40;;;;;;5032035;28;20049;-58
2022/04/14 04:18:49;;;;;;;2.20;1.38;;;20.50;57.40;;;;;;5032866;28;20068;-58
2022/04/14 04:21:15;;;;;;;2.55;1.40;;;20.50;57.40;;;;;;5032562;28;20060;-58
2022/04/14 04:23:40;;;;;;;2.08;1.25;;;20.50;57.30;;;;;;5031778;28;20508;-58
2022/04/14 04:26:06;;;;;;;2.75;1.60;;;20.50;57.30;;;;;;5032876;28;20046;-58
2022/04/14 04:28:31;;;;;;;2.75;1.20;;;20.50;57.30;;;;;;5032861;28;20042;-58
2022/04/14 04:30:57;;;;;;;2.17;1.35;;;20.50;57.30;;;;;;5031720;28;20057;-58
2022/04/14 04:33:23;;;;;;;2.47;1.40;;;20.50;57.20;;;;;;5032371;28;20053;-58
2022/04/14 04:35:51;;;;;;;2.55;1.40;;;20.50;57.30;;;;;;5032270;28;20049;-58
2022/04/14 04:38:17;;;;;;;2.40;1.38;;;20.50;57.30;;;;;;5032130;28;20064;-58
2022/04/14 04:40:42;;;;;;;2.92;1.42;;;20.50;57.20;;;;;;5032506;28;20041;-58
2022/04/14 04:43:09;;;;;;;3.08;1.38;;;20.50;57.30;;;;;;5032675;28;20389;-58
2022/04/14 04:45:35;;;;;;;2.65;1.10;;;20.50;57.30;;;;;;5032191;28;20038;-58
2022/04/14 04:48:02;;;;;;;2.38;1.10;;;20.50;57.20;;;;;;5032006;28;20042;-58
2022/04/14 04:50:28;;;;;;;3.35;1.52;;;20.50;57.30;;;;;;5032712;28;20497;-57
2022/04/14 04:52:53;;;;;;;2.60;1.42;;;20.50;57.30;;;;;;5031557;28;20068;-58
2022/04/14 04:55:19;;;;;;;1.83;1.10;;;20.50;57.30;;;;;;5032522;28;20389;-58
2022/04/14 04:57:44;;;;;;;3.10;1.35;;;20.50;57.30;;;;;;5032102;28;20096;-58
2022/04/14 05:00:11;;;;;;;2.20;1.40;;;20.50;57.30;;;;;;5031667;28;20095;-58
2022/04/14 05:02:36;;;;;;;2.28;1.23;;;20.50;57.30;;;;;;5032302;28;20049;-58
2022/04/14 05:05:03;;;;;;;2.58;1.48;;;20.50;57.20;;;;;;5032386;28;20045;-58
2022/04/14 05:07:29;;;;;;;2.50;1.27;;;20.50;57.20;;;;;;5031879;28;20053;-58
2022/04/14 05:09:54;;;;;;;3.40;1.42;;;20.40;57.20;;;;;;5032277;28;20057;-58
2022/04/14 05:12:20;;;;;;;2.60;1.25;;;20.50;57.30;;;;;;5032092;28;20086;-58
2022/04/14 05:14:45;;;;;;;2.00;1.23;;;20.50;57.30;;;;;;5031505;28;20043;-57
2022/04/14 05:17:11;;;;;;;2.63;1.17;;;20.50;57.30;;;;;;5032278;28;20513;-58
2022/04/14 05:19:36;;;;;;;2.40;1.15;;;20.50;57.30;;;;;;5034037;28;20049;-58
2022/04/14 05:22:02;;;;;;;1.90;1.20;;;20.50;57.40;;;;;;5036091;28;20124;-57
2022/04/14 05:24:32;;;;;;;3.13;1.38;;;20.50;58.10;;;;;;5036452;28;20045;-58
2022/04/14 05:26:57;;;;;;;3.25;1.30;;;20.50;57.40;;;;;;5035204;28;20099;-58
2022/04/14 05:29:23;;;;;;;1.98;1.17;;;20.50;57.40;;;;;;5036180;28;20046;-58
2022/04/14 05:31:48;;;;;;;1.83;1.27;;;20.50;57.40;;;;;;5035419;28;20053;-58
2022/04/14 05:34:14;;;;;;;3.47;1.23;;;20.50;57.30;;;;;;5035777;28;20125;-57
2022/04/14 05:36:39;;;;;;;2.40;1.00;;;20.50;57.30;;;;;;5035898;28;20046;-58
2022/04/14 05:39:05;;;;;;;2.80;1.55;;;20.50;57.30;;;;;;5035877;28;20092;-58
2022/04/14 05:41:32;;;;;;;2.85;1.30;;;20.50;57.40;;;;;;5035104;28;20045;-58
2022/04/14 05:43:57;;;;;;;2.25;1.20;;;20.60;57.50;;;;;;5035534;28;20045;-58
2022/04/14 05:46:23;;;;;;;2.30;1.20;;;20.50;57.40;;;;;;5036014;28;20045;-57
2022/04/14 05:48:49;;;;;;;2.10;1.30;;;20.60;57.40;;;;;;5034873;28;20041;-58
2022/04/14 05:51:15;;;;;;;2.38;1.30;;;20.60;57.40;;;;;;5035935;28;20045;-57
2022/04/14 05:53:41;;;;;;;2.33;1.35;;;20.60;57.30;;;;;;5035618;28;20046;-58
2022/04/14 05:56:06;;;;;;;3.15;1.20;;;20.60;57.40;;;;;;5035041;28;20061;-58
2022/04/14 05:58:32;;;;;;;3.55;1.30;;;20.60;57.40;;;;;;5035719;28;20069;-58
2022/04/14 06:00:57;;;;;;;2.03;1.40;;;20.60;57.30;;;;;;5035173;28;20091;-59
2022/04/14 06:03:24;;;;;;;2.38;1.20;;;20.60;57.20;;;;;;5034891;28;20042;-58
2022/04/14 06:05:49;;;;;;;3.63;1.45;;;20.70;57.30;;;;;;5035202;28;20106;-58
2022/04/14 06:08:15;;;;;;;3.42;1.55;;;20.70;57.40;;;;;;5035579;28;20041;-58
2022/04/14 06:10:40;;;;;;;2.97;1.40;;;20.70;57.30;;;;;;5034365;28;20053;-59
2022/04/14 06:13:06;;;;;;;2.80;1.60;;;20.70;57.40;;;;;;5035617;28;20041;-58
2022/04/14 06:15:31;;;;;;;3.25;1.50;;;20.70;58.00;;;;;;5035227;28;20042;-58
2022/04/14 06:17:57;;;;;;;3.08;1.40;;;20.70;57.40;;;;;;5034089;28;20085;-58
2022/04/14 06:20:23;;;;;;;2.70;1.42;;;20.70;57.50;;;;;;5035438;28;20047;-58
2022/04/14 06:22:48;;;;;;;3.13;1.50;;;20.70;57.50;;;;;;5034936;28;20045;-58
2022/04/14 06:25:16;;;;;;;4.07;1.42;;;20.80;57.60;;;;;;5034629;28;20507;-58
2022/04/14 06:27:42;;;;;;;3.90;1.30;;;20.80;57.60;;;;;;5035070;28;20045;-58
2022/04/14 06:30:09;;;;;;;3.08;1.40;;;20.80;57.70;;;;;;5033883;28;20060;-58
2022/04/14 06:32:35;;;;;;;3.33;1.40;;;20.80;57.80;;;;;;5034769;28;20469;-58
2022/04/14 06:35:00;;;;;;;3.60;1.38;;;20.90;58.00;;;;;;5034789;28;20113;-58
2022/04/14 06:37:26;;;;;;;2.38;1.50;;;20.90;58.10;;;;;;5034208;28;20470;-58
2022/04/14 06:39:52;;;;;;;3.67;1.30;;;20.90;58.20;;;;;;5034742;28;20045;-58
2022/04/14 06:42:21;;;;;;;4.05;1.55;;;20.90;58.20;;;;;;5035016;28;20049;-58
2022/04/14 06:44:47;;;;;;;3.05;1.63;;;21.00;58.30;;;;;;5033531;28;20163;-58
2022/04/14 06:47:13;;;;;;;2.70;1.45;;;21.00;58.40;;;;;;5034765;28;20038;-58
2022/04/14 06:49:38;;;;;;;2.97;1.30;;;21.00;58.40;;;;;;5034701;28;20045;-58
2022/04/14 06:52:04;;;;;;;3.42;1.67;;;21.00;58.50;;;;;;5034171;28;20103;-57
2022/04/14 06:54:30;;;;;;;3.78;1.48;;;21.00;58.50;;;;;;5034461;28;20041;-58
2022/04/14 06:56:55;;;;;;;3.30;1.65;;;21.10;58.60;;;;;;5034383;28;20041;-58
2022/04/14 06:59:20;;;;;;;3.33;1.40;;;21.10;58.60;;;;;;5033463;28;20405;-58
2022/04/14 07:01:46;;;;;;;3.55;1.42;;;21.10;58.70;;;;;;5034115;28;20081;-58
2022/04/14 07:04:11;;;;;;;3.05;1.45;;;21.10;58.70;;;;;;5034590;28;20048;-58
2022/04/14 07:06:37;;;;;;;3.80;1.38;;;21.10;58.70;;;;;;5046074;28;20110;-58
2022/04/14 07:09:02;;;;;;;3.38;1.48;;;21.20;58.90;;;;;;5026162;28;20500;-57
2022/04/14 07:11:28;;;;;;;4.18;1.42;;;21.20;59.00;;;;;;5033291;28;20042;-59
2022/04/14 07:13:53;;;;;;;3.88;1.20;;;21.20;59.00;;;;;;5032850;28;20049;-59
2022/04/14 07:16:19;;;;;;;3.78;1.40;;;21.20;59.00;;;;;;5034113;28;20041;-59
2022/04/14 07:18:45;;;;;;;4.38;1.50;;;21.20;59.00;;;;;;5033578;28;20100;-58
2022/04/14 07:21:10;;;;;;;2.78;1.60;;;21.30;59.00;;;;;;5033094;28;20049;-58
2022/04/14 07:23:36;;;;;;;3.35;1.55;;;21.30;59.10;;;;;;5033881;28;20124;-58
2022/04/14 07:26:01;;;;;;;2.70;1.50;;;21.30;59.10;;;;;;5033908;28;20045;-58
2022/04/14 07:28:27;;;;;;;2.53;1.40;;;21.30;59.10;;;;;;5033213;28;20130;-58
2022/04/14 07:30:52;;;;;;;3.17;1.50;;;21.40;59.30;;;;;;5033209;28;20093;-58
2022/04/14 07:33:18;;;;;;;2.60;1.40;;;21.40;59.30;;;;;;5029448;28;20048;-58
2022/04/14 07:35:45;;;;;;;3.38;1.70;;;21.40;59.40;;;;;;5033160;28;20053;-57
2022/04/14 07:38:11;;;;;;;3.63;1.58;;;21.40;59.40;;;;;;5033821;28;20045;-58
2022/04/14 07:40:36;;;;;;;2.55;1.42;;;21.50;59.50;;;;;;5033148;28;20049;-57
2022/04/14 07:43:02;;;;;;;4.07;1.70;;;21.40;59.40;;;;;;5032472;28;20045;-58
2022/04/14 07:45:28;;;;;;;9.85;1.80;;;21.50;59.50;;;;;;5033491;28;20049;-61
2022/04/14 07:47:53;;;;;;;2.55;1.52;;;21.50;59.50;;;;;;5032444;28;20040;-58
2022/04/14 07:50:19;;;;;;;4.05;1.58;;;21.50;59.50;;;;;;5033884;28;20382;-58
2022/04/14 07:52:55;;;;;;;4.47;1.40;;;21.50;59.50;;;;;;5033202;28;20042;-58
2022/04/14 07:55:25;;;;;;;3.85;1.50;;;21.50;59.50;;;;;;5032843;28;20071;-59
2022/04/14 07:57:51;;;;;;;3.20;1.42;;;21.50;59.50;;;;;;5033225;28;20037;-58
2022/04/14 08:00:17;;;;;;;2.53;1.52;;;21.60;59.50;;;;;;5033503;28;20033;-58
2022/04/14 08:02:53;;;;;;;2.40;1.50;;;21.60;59.50;;;;;;5032288;28;20084;-58
2022/04/14 08:05:20;;;;;;;3.55;1.80;;;21.60;59.50;;;;;;5033322;28;20115;-58
2022/04/14 08:07:46;;;;;;;3.17;1.40;;;21.60;59.50;;;;;;5033180;28;20041;-58
2022/04/14 08:10:11;;;;;;;3.50;1.60;;;21.60;59.50;;;;;;5032134;28;20045;-58
2022/04/14 08:12:37;;;;;;;2.78;1.70;;;21.70;59.50;;;;;;5033382;28;20045;-58
2022/04/14 08:15:03;;;;;;;2.38;1.52;;;21.70;59.50;;;;;;5032179;28;20405;-58
2022/04/14 08:17:29;;;;;;;4.60;1.92;;;21.70;59.50;;;;;;5031978;28;20390;-58
2022/04/14 08:19:54;;;;;;;2.58;1.15;;;21.70;59.50;;;;;;5032984;28;20049;-59
2022/04/14 08:22:19;;;;;;;2.70;1.20;;;21.70;59.50;;;;;;5032670;28;20049;-57
2022/04/14 08:24:47;;;;;;;2.47;1.42;;;21.70;59.50;;;;;;5018079;28;20139;-58
2022/04/14 08:27:13;;;;;;;5.03;1.40;;;21.70;59.50;;;;;;5013263;28;20049;-58
2022/04/14 08:29:39;;;;;;;3.50;1.40;;;21.80;59.60;;;;;;5012048;28;20044;-58
2022/04/14 08:32:07;;;;;;;4.32;1.77;;;21.80;59.70;;;;;;5013301;28;20096;-58
2022/04/14 08:34:33;;;;;;;;;;;21.80;59.70;;;;;;5012530;28;20042;-58
2022/04/14 08:36:59;;;;;;;4.75;1.58;;;21.80;59.80;;;;;;5011858;28;20024;-57
2022/04/14 08:39:25;;;;;;;3.65;1.63;;;21.80;59.80;;;;;;5011643;28;20042;-58
2022/04/14 08:41:53;;;;;;;3.85;1.67;;;21.80;59.90;;;;;;5012927;28;20487;-58
2022/04/14 08:44:19;;;;;;;3.15;1.52;;;21.80;60.00;;;;;;5011082;28;20509;-58
2022/04/14 08:46:45;;;;;;;2.97;1.23;;;21.90;60.00;;;;;;5011689;28;20096;-58
2022/04/14 08:49:10;;;;;;;3.65;1.38;;;21.90;60.00;;;;;;5011662;28;20489;-58
2022/04/14 08:51:36;;;;;;;3.95;1.60;;;21.90;60.00;;;;;;5011104;28;20085;-58
2022/04/14 08:54:02;;;;;;;3.28;1.58;;;21.90;60.10;;;;;;5018154;28;20042;-57
2022/04/14 08:56:27;;;;;;;2.50;1.40;;;21.90;60.10;;;;;;5032564;28;20084;-57
2022/04/14 08:58:55;;;;;;;3.35;1.65;;;21.90;60.10;;;;;;5030439;28;20037;-57
2022/04/14 09:01:20;;;;;;;2.75;1.40;;;21.90;60.20;;;;;;5032469;28;20108;-57
2022/04/14 09:03:46;;;;;;;2.40;1.10;;;22.00;60.20;;;;;;5047689;28;20459;-57
2022/04/14 09:06:11;;;;;;;3.28;1.40;;;21.90;60.20;;;;;;5030721;28;20457;-58
2022/04/14 09:08:37;;;;;;;4.30;1.58;;;22.00;60.30;;;;;;5047358;28;20046;-58
2022/04/14 09:11:03;;;;;;;3.45;1.40;;;22.00;60.30;;;;;;5032417;28;20038;-59
2022/04/14 09:13:28;;;;;;;3.45;1.33;;;22.00;60.30;;;;;;5027332;28;20048;-58
2022/04/14 09:15:54;;;;;;;2.65;1.10;;;22.00;60.30;;;;;;5020575;28;20489;-58
2022/04/14 09:18:19;;;;;;;3.83;1.30;;;22.10;60.40;;;;;;5013550;28;20050;-57
2022/04/14 09:20:48;;;;;;;3.90;1.20;;;22.00;60.30;;;;;;5019303;28;20065;-57
2022/04/14 09:23:21;;;;;;;3.78;1.27;;;22.10;60.20;;;;;;5012594;28;20065;-58
2022/04/14 09:25:51;;;;;;;4.53;1.38;;;22.10;60.40;;;;;;5011504;28;20042;-58
2022/04/14 09:28:18;;;;;;;4.20;1.40;;;22.10;60.50;;;;;;5012267;28;20536;-58
2022/04/14 09:31:05;;;;;;;2.47;1.25;;;22.10;60.60;;;;;;5026317;28;20057;-57
2022/04/14 09:33:32;;;;;;;3.42;1.42;;;22.10;60.70;;;;;;5020409;28;20050;-58
2022/04/14 09:36:16;;;;;;;2.75;1.30;;;22.10;60.80;;;;;;5021077;28;20071;-58
2022/04/14 09:38:57;;;;;;;3.17;1.48;;;22.10;60.80;;;;;;5022699;28;20091;-58
2022/04/14 09:41:39;;;;;;;3.42;1.20;;;22.10;60.80;;;;;;5030833;28;20042;-59
2022/04/14 09:44:06;;;;;;;2.58;1.40;;;22.10;60.80;;;;;;5032076;28;20042;-59
2022/04/14 09:46:32;;;;;;;3.65;1.33;;;22.10;60.70;;;;;;5032416;28;20088;-59
2022/04/14 09:49:05;;;;;;;5.88;1.50;;;22.10;60.50;;;;;;5031827;28;20056;-60
2022/04/14 09:51:30;;;;;;;9.52;3.30;;;22.10;60.40;;;;;;5031047;28;20034;-59
2022/04/14 09:54:05;;;;;;;6.97;3.35;;;22.10;60.40;;;;;;5030985;28;20103;-59
2022/04/14 09:56:51;;;;;;;10.63;3.83;;;22.10;60.30;;;;;;5032068;28;20125;-60
2022/04/14 09:59:18;;;;;;;8.98;3.45;;;22.10;60.30;;;;;;5032285;28;20048;-60
2022/04/14 10:01:44;;;;;;;9.25;3.80;;;22.10;60.30;;;;;;5031091;28;20033;-60
2022/04/14 10:04:28;;;;;;;11.18;4.25;;;22.10;60.30;;;;;;5032154;28;20393;-60
2022/04/14 10:07:19;;;;;;;12.20;4.10;;;22.10;60.30;;;;;;5035439;28;20164;-59
2022/04/14 10:09:46;;;;;;;11.80;3.88;;;22.00;60.30;;;;;;5034565;28;20048;-60
2022/04/14 10:12:17;;;;;;;14.38;4.03;;;22.00;60.30;;;;;;5030751;28;20052;-60
2022/04/14 10:14:44;;;;;;;9.95;4.25;;;22.00;60.30;;;;;;5034296;28;20045;-60
2022/04/14 10:17:10;;;;;;;10.90;4.20;;;22.00;60.40;;;;;;5033028;28;20049;-59
2022/04/14 10:19:36;;;;;;;12.48;4.63;;;22.00;60.30;;;;;;5034342;28;20041;-59
2022/04/14 10:22:03;;;;;;;11.80;4.45;;;22.00;60.30;;;;;;5034363;28;20045;-59
2022/04/14 10:24:29;;;;;;;11.65;4.38;;;22.00;60.30;;;;;;5033852;28;20056;-59
2022/04/14 10:26:55;;;;;;;12.00;4.10;;;22.00;60.20;;;;;;5034790;28;20123;-59
2022/04/14 10:29:21;;;;;;;10.55;4.00;;;22.00;60.20;;;;;;5033250;28;20043;-59
2022/04/14 10:31:49;;;;;;;9.65;3.90;;;22.00;60.20;;;;;;5034418;28;20054;-58
2022/04/14 10:34:15;;;;;;;13.23;4.05;;;22.00;60.30;;;;;;5033477;28;20069;-59
2022/04/14 10:36:41;;;;;;;11.50;3.90;;;22.00;60.30;;;;;;5032933;28;20433;-59
2022/04/14 10:39:10;;;;;;;12.48;4.07;;;22.00;60.40;;;;;;5033846;28;20091;-59
2022/04/14 10:41:36;;;;;;;13.23;4.03;;;22.00;60.40;;;;;;5035045;28;20038;-59
2022/04/14 10:44:02;;;;;;;10.70;4.45;;;22.00;60.40;;;;;;5032498;28;20114;-59
2022/04/14 10:46:31;;;;;;;11.63;3.80;;;22.00;60.50;;;;;;5034703;28;20077;-59
2022/04/14 10:49:10;;;;;;;11.63;4.22;;;22.00;60.50;;;;;;5034421;28;20088;-59
2022/04/14 10:51:36;;;;;;;11.98;4.18;;;22.00;60.50;;;;;;5034235;28;20041;-58
2022/04/14 10:54:06;;;;;;;9.65;4.43;;;22.00;60.50;;;;;;5030450;28;20107;-59
2022/04/14 10:56:39;;;;;;;12.00;3.88;;;22.00;60.50;;;;;;5034748;28;20100;-59
2022/04/14 10:59:11;;;;;;;10.20;3.75;;;22.00;60.50;;;;;;5033799;28;20551;-59
2022/04/14 11:01:46;;;;;;;9.05;3.67;;;22.00;60.60;;;;;;5032862;28;20076;-59
2022/04/14 11:04:28;;;;;;;9.77;3.47;;;22.00;60.60;;;;;;5014366;28;20485;-59
2022/04/14 11:06:54;;;;;;;9.82;3.75;;;22.00;60.60;;;;;;5014395;28;20050;-59
2022/04/14 11:09:38;;;;;;;10.30;4.35;;;22.00;60.50;;;;;;5014259;28;20494;-59
2022/04/14 11:12:04;;;;;;;10.60;3.90;;;21.90;60.00;;;;;;5013830;28;20042;-59
2022/04/14 11:14:34;;;;;;;10.20;4.28;;;21.90;60.10;;;;;;5014688;28;20042;-59
2022/04/14 11:17:00;;;;;;;9.68;3.90;;;22.00;60.10;;;;;;5013036;28;20098;-59
2022/04/14 11:19:26;;;;;;;11.45;3.55;;;21.90;60.00;;;;;;5013905;28;20137;-59
2022/04/14 11:22:08;;;;;;;9.70;3.58;;;21.90;60.00;;;;;;5014282;28;20473;-59
2022/04/14 11:24:41;;;;;;;9.43;3.28;;;21.90;60.00;;;;;;5014645;28;20057;-59
2022/04/14 11:27:15;;;;;;;10.25;3.58;;;21.90;60.00;;;;;;5013611;28;20049;-59
2022/04/14 11:29:46;;;;;;;11.10;4.07;;;21.90;60.00;;;;;;5013883;28;20046;-60
2022/04/14 11:32:13;;;;;;;7.93;3.17;;;21.90;59.90;;;;;;5014282;28;20509;-59
2022/04/14 11:34:40;;;;;;;7.85;3.60;;;21.90;59.90;;;;;;5013454;28;20125;-59
2022/04/14 11:37:41;;;;;;;7.15;2.78;;;21.90;59.80;;;;;;5014182;28;20110;-59
2022/04/14 11:40:21;;;;;;;8.35;2.95;;;22.00;59.70;;;;;;5013574;28;20126;-59
2022/04/14 11:42:48;;;;;;;9.82;3.20;;;22.00;59.70;;;;;;5013941;28;20474;-59
2022/04/14 11:45:13;;;;;;;7.30;3.03;;;22.00;59.60;;;;;;5014249;28;20046;-59
2022/04/14 11:47:39;;;;;;;8.57;3.30;;;22.00;59.60;;;;;;5013028;28;20042;-59
2022/04/14 11:50:06;;;;;;;8.82;3.03;;;22.00;59.50;;;;;;5014185;28;20042;-59
2022/04/14 11:52:32;;;;;;;6.90;3.13;;;22.00;59.50;;;;;;5014082;28;20128;-59
2022/04/14 11:54:58;;;;;;;6.85;2.75;;;22.00;59.40;;;;;;5012767;28;20096;-59
2022/04/14 11:57:28;;;;;;;6.72;2.80;;;22.00;59.30;;;;;;5013887;28;20049;-59
2022/04/14 11:59:56;;;;;;;6.60;2.90;;;22.10;59.30;;;;;;5012398;28;20382;-60
2022/04/14 12:02:23;;;;;;;7.22;3.22;;;22.10;59.20;;;;;;5013156;28;20050;-60
2022/04/14 12:04:56;;;;;;;9.02;3.22;;;22.10;59.20;;;;;;5013508;28;20100;-59
2022/04/14 12:07:30;;;;;;;7.82;2.70;;;22.10;59.00;;;;;;5013790;28;20046;-59
2022/04/14 12:09:59;;;;;;;6.68;3.10;;;22.10;59.00;;;;;;5012689;28;20065;-60
2022/04/14 12:12:24;;;;;;;6.72;2.65;;;22.10;58.90;;;;;;5013392;28;20042;-59
2022/04/14 12:14:52;;;;;;;7.22;2.70;;;22.10;58.90;;;;;;5012658;28;20100;-59
2022/04/14 12:17:22;;;;;;;5.57;2.97;;;22.10;58.80;;;;;;5013523;28;20073;-59
2022/04/14 12:20:00;;;;;;;6.63;2.67;;;22.10;58.90;;;;;;5013182;28;20042;-59
2022/04/14 12:22:34;;;;;;;7.93;2.67;;;22.10;58.80;;;;;;5012930;28;20042;-59
2022/04/14 12:25:00;;;;;;;6.43;2.75;;;22.10;58.80;;;;;;5013327;28;20050;-60
2022/04/14 12:27:28;;;;;;;6.60;2.67;;;22.00;58.80;;;;;;5013302;28;20038;-59
2022/04/14 12:29:55;;;;;;;6.55;2.70;;;22.10;58.70;;;;;;5012338;28;20085;-60
2022/04/14 12:32:27;;;;;;;6.63;2.50;;;22.10;58.80;;;;;;5012955;28;20081;-59
2022/04/14 12:34:53;;;;;;;6.03;2.95;;;22.10;58.80;;;;;;5013123;28;20034;-59
2022/04/14 12:37:19;;;;;;;4.90;2.40;;;22.00;58.70;;;;;;5012519;28;20444;-59
2022/04/14 12:39:58;;;;;;;4.03;2.28;;;22.10;59.40;;;;;;5013007;28;20038;-59
2022/04/14 12:42:28;;;;;;;5.10;2.47;;;22.10;58.70;;;;;;5012983;28;20476;-59
2022/04/14 12:44:53;;;;;;;6.90;2.85;;;22.00;58.70;;;;;;5021248;28;20462;-60